createdAt,value
2022-11-27T00:01:23.552Z,6.20
2022-11-27T00:03:50.314Z,5.94
2022-11-27T00:06:17.072Z,5.89
2022-11-27T00:08:43.718Z,6.01
2022-11-27T00:11:10.357Z,6.24
2022-11-27T00:13:36.966Z,6.06
2022-11-27T00:16:03.689Z,6.17
2022-11-27T00:18:30.389Z,6.31
2022-11-27T00:20:57.054Z,6.36
2022-11-27T00:23:23.674Z,6.33
2022-11-27T00:25:50.303Z,6.13
2022-11-27T00:28:16.947Z,6.27
2022-11-27T00:30:43.599Z,6.05
2022-11-27T00:33:10.229Z,6.19
2022-11-27T00:35:36.865Z,6.26
2022-11-27T00:38:03.554Z,6.22
2022-11-27T00:40:30.151Z,6.38
2022-11-27T00:42:56.760Z,6.52
2022-11-27T00:45:23.411Z,6.43
2022-11-27T00:47:50.079Z,6.46
2022-11-27T00:50:16.727Z,6.55
2022-11-27T00:52:43.390Z,6.58
2022-11-27T00:55:10.034Z,6.70
2022-11-27T00:57:36.674Z,6.63
2022-11-27T01:00:03.327Z,6.58
2022-11-27T01:02:29.987Z,6.65
2022-11-27T01:04:56.609Z,6.56
2022-11-27T01:07:23.331Z,6.59
2022-11-27T01:09:49.974Z,6.50
2022-11-27T01:12:16.624Z,6.28
2022-11-27T01:14:43.233Z,6.34
2022-11-27T01:17:09.846Z,6.49
2022-11-27T01:19:38.601Z,6.57
2022-11-27T01:22:05.266Z,6.68
2022-11-27T01:24:31.926Z,6.65
2022-11-27T01:26:58.564Z,6.72
2022-11-27T01:29:25.172Z,6.65
2022-11-27T01:31:51.790Z,6.77
2022-11-27T01:34:18.376Z,6.77
2022-11-27T01:36:45.002Z,6.82
2022-11-27T01:39:11.589Z,6.53
2022-11-27T01:41:38.253Z,6.60
2022-11-27T01:44:04.895Z,6.61
2022-11-27T01:46:31.621Z,6.51
2022-11-27T01:48:58.351Z,6.34
2022-11-27T01:51:24.975Z,6.37
2022-11-27T01:53:51.617Z,6.50
2022-11-27T01:56:18.206Z,6.55
2022-11-27T01:58:44.820Z,6.48
2022-11-27T02:01:11.459Z,6.48
2022-11-27T02:03:38.095Z,6.59
2022-11-27T02:06:04.708Z,6.73
2022-11-27T02:08:31.405Z,6.75
2022-11-27T02:10:58.021Z,6.74
2022-11-27T02:13:24.596Z,6.72
2022-11-27T02:15:51.269Z,6.71
2022-11-27T02:18:17.896Z,6.71
2022-11-27T02:20:44.501Z,6.55
2022-11-27T02:23:11.100Z,6.28
2022-11-27T02:25:37.730Z,6.43
2022-11-27T02:28:04.363Z,6.41
2022-11-27T02:30:30.959Z,6.27
2022-11-27T02:32:57.624Z,6.31
2022-11-27T02:35:24.270Z,6.21
2022-11-27T02:37:50.908Z,6.19
2022-11-27T02:40:17.533Z,6.09
2022-11-27T02:42:44.156Z,6.17
2022-11-27T02:45:10.840Z,6.18
2022-11-27T02:47:37.462Z,6.24
2022-11-27T02:50:04.113Z,6.31
2022-11-27T02:52:30.757Z,6.39
2022-11-27T02:54:57.434Z,6.39
2022-11-27T02:57:24.012Z,6.35
2022-11-27T02:59:50.615Z,6.39
2022-11-27T03:02:17.305Z,6.38
2022-11-27T03:04:43.980Z,6.35
2022-11-27T03:07:10.696Z,6.33
2022-11-27T03:09:37.324Z,6.23
2022-11-27T03:12:03.950Z,6.16
2022-11-27T03:14:30.558Z,6.15
2022-11-27T03:16:57.247Z,6.15
2022-11-27T03:19:23.868Z,6.06
2022-11-27T03:21:50.514Z,6.09
2022-11-27T03:24:17.150Z,6.23
2022-11-27T03:26:43.766Z,6.17
2022-11-27T03:29:10.407Z,6.22
2022-11-27T03:31:37.071Z,6.09
2022-11-27T03:34:03.773Z,6.14
2022-11-27T03:36:30.432Z,6.15
2022-11-27T03:38:57.145Z,6.15
2022-11-27T03:41:23.831Z,6.04
2022-11-27T03:43:50.422Z,6.11
2022-11-27T03:46:17.089Z,5.92
2022-11-27T03:48:43.791Z,5.59
2022-11-27T03:51:10.435Z,5.51
2022-11-27T03:53:37.029Z,5.65
2022-11-27T03:56:09.631Z,5.72
2022-11-27T03:58:36.790Z,5.77
2022-11-27T04:01:03.440Z,5.78
2022-11-27T04:03:30.141Z,5.79
2022-11-27T04:05:56.792Z,5.75
2022-11-27T04:08:23.442Z,5.55
2022-11-27T04:10:50.086Z,5.54
2022-11-27T04:13:16.749Z,5.35
2022-11-27T04:15:43.517Z,5.28
2022-11-27T04:18:10.258Z,5.42
2022-11-27T04:20:36.896Z,5.50
2022-11-27T04:23:03.504Z,5.49
2022-11-27T04:25:30.137Z,5.52
2022-11-27T04:27:56.765Z,5.57
2022-11-27T04:30:23.472Z,5.57
2022-11-27T04:32:50.157Z,5.42
2022-11-27T04:35:16.773Z,5.49
2022-11-27T04:37:43.436Z,5.40
2022-11-27T04:40:10.079Z,5.12
2022-11-27T04:42:36.730Z,5.05
2022-11-27T04:45:03.375Z,5.36
2022-11-27T04:47:30.016Z,5.34
2022-11-27T04:49:56.682Z,5.45
2022-11-27T04:52:23.341Z,5.32
2022-11-27T04:54:49.978Z,5.13
2022-11-27T04:57:16.693Z,5.20
2022-11-27T04:59:43.357Z,5.24
2022-11-27T05:02:09.979Z,5.16
2022-11-27T05:04:36.638Z,5.19
2022-11-27T05:07:03.267Z,5.27
2022-11-27T05:09:29.875Z,5.36
2022-11-27T05:11:56.559Z,5.30
2022-11-27T05:14:23.204Z,5.25
2022-11-27T05:16:49.873Z,5.11
2022-11-27T05:19:17.000Z,5.25
2022-11-27T05:21:43.644Z,5.24
2022-11-27T05:24:10.361Z,5.24
2022-11-27T05:26:36.993Z,5.09
2022-11-27T05:29:03.636Z,5.11
2022-11-27T05:31:30.343Z,5.22
2022-11-27T05:33:57.123Z,5.19
2022-11-27T05:36:23.733Z,5.23
2022-11-27T05:38:50.337Z,5.11
2022-11-27T05:41:16.971Z,5.14
2022-11-27T05:43:43.724Z,5.18
2022-11-27T05:46:10.392Z,5.28
2022-11-27T05:48:37.095Z,5.33
2022-11-27T05:51:03.736Z,5.27
2022-11-27T05:53:30.341Z,5.03
2022-11-27T05:55:56.996Z,4.94
2022-11-27T05:58:23.607Z,5.04
2022-11-27T06:00:50.204Z,5.18
2022-11-27T06:03:16.915Z,5.02
2022-11-27T06:05:43.564Z,4.98
2022-11-27T06:08:10.154Z,4.93
2022-11-27T06:10:36.782Z,5.10
2022-11-27T06:13:03.409Z,5.14
2022-11-27T06:15:30.036Z,5.09
2022-11-27T06:17:56.708Z,5.19
2022-11-27T06:20:23.300Z,5.12
2022-11-27T06:22:49.922Z,5.05
2022-11-27T06:25:16.535Z,5.14
2022-11-27T06:27:43.190Z,5.06
2022-11-27T06:30:09.857Z,5.11
2022-11-27T06:32:36.481Z,5.05
2022-11-27T06:35:03.173Z,5.05
2022-11-27T06:37:29.779Z,5.21
2022-11-27T06:39:56.400Z,4.96
2022-11-27T06:42:22.991Z,4.81
2022-11-27T06:44:49.606Z,4.97
2022-11-27T06:47:16.230Z,5.08
2022-11-27T06:49:42.824Z,5.07
2022-11-27T06:52:09.511Z,5.07
2022-11-27T06:54:36.175Z,5.08
2022-11-27T06:57:02.844Z,4.93
2022-11-27T06:59:29.512Z,4.94
2022-11-27T07:01:56.117Z,4.94
2022-11-27T07:04:22.798Z,5.17
2022-11-27T07:06:49.435Z,5.02
2022-11-27T07:09:16.032Z,5.19
2022-11-27T07:11:42.702Z,5.31
2022-11-27T07:14:09.310Z,5.40
2022-11-27T07:16:36.042Z,5.61
2022-11-27T07:19:02.702Z,5.70
2022-11-27T07:21:29.338Z,5.75
2022-11-27T07:23:55.962Z,5.66
2022-11-27T07:26:22.554Z,5.64
2022-11-27T07:28:49.181Z,5.48
2022-11-27T07:31:15.873Z,5.76
2022-11-27T07:33:42.557Z,6.03
2022-11-27T07:36:09.217Z,6.13
2022-11-27T07:38:35.819Z,6.24
2022-11-27T07:41:02.474Z,6.01
2022-11-27T07:43:29.094Z,6.27
2022-11-27T07:45:55.789Z,6.30
2022-11-27T07:48:22.386Z,6.46
2022-11-27T07:50:49.033Z,6.53
2022-11-27T07:53:15.653Z,6.60
2022-11-27T07:55:43.280Z,6.34
2022-11-27T07:58:09.893Z,6.65
2022-11-27T08:00:36.573Z,6.93
2022-11-27T08:03:03.250Z,7.08
2022-11-27T08:05:29.853Z,7.20
2022-11-27T08:07:56.550Z,7.46
2022-11-27T08:10:23.242Z,7.58
2022-11-27T08:12:49.877Z,7.69
2022-11-27T08:15:16.509Z,7.70
2022-11-27T08:17:43.093Z,7.72
2022-11-27T08:20:09.776Z,7.85
2022-11-27T08:22:36.419Z,7.91
2022-11-27T08:25:03.008Z,8.14
2022-11-27T08:27:29.638Z,8.28
2022-11-27T08:29:56.266Z,8.51
2022-11-27T08:32:22.882Z,8.52
2022-11-27T08:34:49.545Z,8.63
2022-11-27T08:37:16.203Z,8.83
2022-11-27T08:39:42.897Z,8.89
2022-11-27T08:42:10.022Z,8.89
2022-11-27T08:44:36.653Z,8.62
2022-11-27T08:47:03.272Z,9.00
2022-11-27T08:49:29.879Z,9.06
2022-11-27T08:51:56.495Z,9.25
2022-11-27T08:54:23.108Z,9.33
2022-11-27T08:56:49.708Z,9.61
2022-11-27T08:59:16.313Z,9.41
2022-11-27T09:01:42.920Z,9.61
2022-11-27T09:04:09.630Z,9.68
2022-11-27T09:06:36.387Z,9.71
2022-11-27T09:09:03.035Z,9.89
2022-11-27T09:11:29.653Z,10.01
2022-11-27T09:13:56.247Z,10.06
2022-11-27T09:16:23.032Z,10.03
2022-11-27T09:18:49.767Z,10.22
2022-11-27T09:21:16.425Z,10.38
2022-11-27T09:23:43.066Z,10.30
2022-11-27T09:26:09.770Z,10.47
2022-11-27T09:28:36.446Z,10.70
2022-11-27T09:31:03.113Z,10.72
2022-11-27T09:33:29.750Z,10.60
2022-11-27T09:35:56.418Z,10.61
2022-11-27T09:38:23.063Z,10.66
2022-11-27T09:40:49.687Z,10.96
2022-11-27T09:43:16.341Z,11.14
2022-11-27T09:45:43.036Z,11.22
2022-11-27T09:48:09.694Z,11.20
2022-11-27T09:50:36.332Z,11.25
2022-11-27T09:53:03.020Z,11.38
2022-11-27T09:55:29.623Z,11.58
2022-11-27T09:57:56.248Z,11.66
2022-11-27T10:00:22.927Z,11.52
2022-11-27T10:02:49.685Z,11.69
2022-11-27T10:05:17.199Z,11.82
2022-11-27T10:07:44.370Z,11.83
2022-11-27T10:10:11.084Z,12.14
2022-11-27T10:12:37.730Z,12.12
2022-11-27T10:15:04.393Z,12.37
2022-11-27T10:17:31.042Z,12.40
2022-11-27T10:19:57.678Z,12.62
2022-11-27T10:22:24.298Z,12.87
2022-11-27T10:24:50.919Z,12.88
2022-11-27T10:27:18.815Z,13.09
2022-11-27T10:29:47.348Z,13.38
2022-11-27T10:32:46.792Z,13.54
2022-11-27T10:35:03.460Z,13.67
2022-11-27T10:37:30.169Z,13.56
2022-11-27T10:39:56.851Z,13.23
2022-11-27T10:42:23.589Z,13.41
2022-11-27T10:44:50.255Z,13.39
2022-11-27T10:47:16.911Z,13.84
2022-11-27T10:49:43.572Z,14.08
2022-11-27T10:52:10.165Z,14.24
2022-11-27T10:54:36.823Z,14.37
2022-11-27T10:57:03.462Z,14.50
2022-11-27T10:59:33.178Z,14.37
2022-11-27T11:02:01.500Z,14.53
2022-11-27T11:04:43.525Z,14.77
2022-11-27T11:07:10.161Z,14.60
2022-11-27T11:09:36.774Z,14.94
2022-11-27T11:12:03.444Z,14.66
2022-11-27T11:14:30.033Z,14.14
2022-11-27T11:16:56.822Z,14.49
2022-11-27T11:19:23.484Z,14.25
2022-11-27T11:21:50.146Z,13.79
2022-11-27T11:24:16.828Z,13.76
2022-11-27T11:26:43.515Z,13.79
2022-11-27T11:29:10.180Z,13.16
2022-11-27T11:31:36.828Z,12.67
2022-11-27T11:34:03.594Z,12.94
2022-11-27T11:36:30.243Z,13.17
2022-11-27T11:38:56.883Z,13.76
2022-11-27T11:41:23.776Z,14.73
2022-11-27T11:43:50.456Z,15.08
2022-11-27T11:46:17.232Z,15.43
2022-11-27T11:48:43.970Z,15.65
2022-11-27T11:51:10.611Z,15.81
2022-11-27T11:53:37.255Z,15.74
2022-11-27T11:56:03.894Z,15.51
2022-11-27T11:58:30.489Z,14.49
2022-11-27T12:01:26.475Z,14.10
2022-11-27T12:03:43.791Z,14.29
2022-11-27T12:06:10.467Z,15.08
2022-11-27T12:08:37.130Z,15.37
2022-11-27T12:11:03.798Z,15.61
2022-11-27T12:13:33.156Z,15.55
2022-11-27T12:16:00.037Z,14.66
2022-11-27T12:18:26.637Z,14.14
2022-11-27T12:20:53.301Z,13.57
2022-11-27T12:23:19.937Z,13.69
2022-11-27T12:25:46.549Z,14.20
2022-11-27T12:28:13.246Z,14.94
2022-11-27T12:30:39.976Z,14.60
2022-11-27T12:33:06.626Z,14.04
2022-11-27T12:35:33.246Z,14.08
2022-11-27T12:38:00.233Z,14.93
2022-11-27T12:40:26.992Z,15.38
2022-11-27T12:42:53.598Z,15.45
2022-11-27T12:45:20.237Z,15.03
2022-11-27T12:47:46.863Z,15.44
2022-11-27T12:50:13.576Z,15.69
2022-11-27T12:52:40.244Z,15.95
2022-11-27T12:55:06.879Z,15.94
2022-11-27T12:57:33.547Z,15.89
2022-11-27T13:00:00.224Z,15.52
2022-11-27T13:02:27.040Z,14.89
2022-11-27T13:04:54.260Z,14.95
2022-11-27T13:07:20.996Z,15.44
2022-11-27T13:09:47.619Z,15.87
2022-11-27T13:12:14.298Z,15.83
2022-11-27T13:14:41.167Z,15.12
2022-11-27T13:17:07.894Z,15.47
2022-11-27T13:19:34.535Z,15.29
2022-11-27T13:22:01.182Z,14.22
2022-11-27T13:24:27.822Z,14.52
2022-11-27T13:26:54.460Z,14.88
2022-11-27T13:29:21.115Z,15.43
2022-11-27T13:31:47.816Z,14.99
2022-11-27T13:34:14.501Z,14.72
2022-11-27T13:36:41.099Z,15.18
2022-11-27T13:39:07.737Z,15.51
2022-11-27T13:41:34.401Z,15.46
2022-11-27T13:44:01.061Z,14.96
2022-11-27T13:46:27.726Z,14.95
2022-11-27T13:48:54.343Z,14.62
2022-11-27T13:51:20.953Z,14.04
2022-11-27T13:53:47.597Z,13.62
2022-11-27T13:56:14.238Z,13.52
2022-11-27T13:58:40.865Z,13.84
2022-11-27T14:01:07.569Z,13.55
2022-11-27T14:03:34.311Z,13.39
2022-11-27T14:06:00.979Z,13.62
2022-11-27T14:08:27.615Z,13.92
2022-11-27T14:10:54.251Z,13.98
2022-11-27T14:13:24.888Z,13.78
2022-11-27T14:15:54.267Z,13.55
2022-11-27T14:18:20.956Z,13.73
2022-11-27T14:20:47.597Z,13.70
2022-11-27T14:23:14.344Z,13.82
2022-11-27T14:25:41.101Z,13.70
2022-11-27T14:28:07.727Z,13.76
2022-11-27T14:30:34.363Z,13.80
2022-11-27T14:33:01.026Z,13.71
2022-11-27T14:35:27.635Z,13.65
2022-11-27T14:37:54.299Z,13.54
2022-11-27T14:40:20.967Z,13.43
2022-11-27T14:42:47.632Z,13.30
2022-11-27T14:45:14.239Z,13.20
2022-11-27T14:47:40.859Z,13.04
2022-11-27T14:50:07.503Z,12.84
2022-11-27T14:52:34.245Z,12.67
2022-11-27T14:55:00.915Z,12.53
2022-11-27T14:57:27.576Z,12.37
2022-11-27T14:59:54.219Z,12.21
2022-11-27T15:02:26.057Z,12.14
2022-11-27T15:04:55.506Z,12.05
2022-11-27T15:07:22.290Z,11.87
2022-11-27T15:09:49.416Z,11.69
2022-11-27T15:12:16.266Z,11.57
2022-11-27T15:14:42.890Z,11.40
2022-11-27T15:17:09.630Z,11.30
2022-11-27T15:19:36.273Z,11.10
2022-11-27T15:22:02.905Z,11.04
2022-11-27T15:24:29.523Z,10.97
2022-11-27T15:26:56.185Z,10.92
2022-11-27T15:29:22.811Z,10.82
2022-11-27T15:31:49.507Z,10.79
2022-11-27T15:34:16.199Z,10.72
2022-11-27T15:36:42.802Z,10.65
2022-11-27T15:39:09.479Z,10.65
2022-11-27T15:41:40.850Z,10.52
2022-11-27T15:44:10.064Z,10.35
2022-11-27T15:46:36.818Z,10.25
2022-11-27T15:49:03.455Z,10.20
2022-11-27T15:51:30.037Z,10.04
2022-11-27T15:53:56.712Z,10.06
2022-11-27T15:56:23.360Z,10.03
2022-11-27T15:58:50.067Z,9.94
2022-11-27T16:01:16.908Z,9.96
2022-11-27T16:03:43.591Z,9.95
2022-11-27T16:06:10.257Z,9.81
2022-11-27T16:08:38.711Z,9.73
2022-11-27T16:11:05.437Z,9.69
2022-11-27T16:13:32.091Z,9.51
2022-11-27T16:15:58.772Z,9.44
2022-11-27T16:18:25.434Z,9.41
2022-11-27T16:20:52.054Z,9.33
2022-11-27T16:23:18.682Z,9.30
2022-11-27T16:25:45.279Z,9.17
2022-11-27T16:28:11.909Z,9.13
2022-11-27T16:30:41.679Z,9.10
2022-11-27T16:33:08.348Z,9.06
2022-11-27T16:35:34.989Z,9.05
2022-11-27T16:38:01.616Z,9.08
2022-11-27T16:40:28.242Z,9.04
2022-11-27T16:42:54.901Z,9.01
2022-11-27T16:45:21.631Z,8.96
2022-11-27T16:47:48.314Z,8.93
2022-11-27T16:50:14.976Z,8.98
2022-11-27T16:52:41.574Z,9.01
2022-11-27T16:55:08.237Z,8.89
2022-11-27T16:57:34.866Z,8.77
2022-11-27T17:00:01.615Z,8.58
2022-11-27T17:02:28.398Z,8.56
2022-11-27T17:04:54.998Z,8.53
2022-11-27T17:07:21.704Z,8.42
2022-11-27T17:09:48.336Z,8.27
2022-11-27T17:12:14.946Z,8.36
2022-11-27T17:14:41.992Z,8.37
2022-11-27T17:17:08.841Z,8.35
2022-11-27T17:19:35.450Z,8.27
2022-11-27T17:22:02.103Z,8.22
2022-11-27T17:24:28.739Z,8.28
2022-11-27T17:26:55.456Z,8.41
2022-11-27T17:29:22.116Z,8.32
2022-11-27T17:31:48.874Z,8.27
2022-11-27T17:34:15.597Z,8.27
2022-11-27T17:36:42.237Z,8.18
2022-11-27T17:39:08.899Z,7.90
2022-11-27T17:41:35.526Z,7.98
2022-11-27T17:44:02.121Z,8.04
2022-11-27T17:46:28.740Z,8.23
2022-11-27T17:48:55.354Z,8.21
2022-11-27T17:51:22.211Z,8.04
2022-11-27T17:53:48.880Z,7.97
2022-11-27T17:56:15.538Z,8.07
2022-11-27T17:58:42.198Z,8.15
2022-11-27T18:01:08.900Z,8.21
2022-11-27T18:03:35.528Z,8.27
2022-11-27T18:06:02.216Z,8.31
2022-11-27T18:08:28.829Z,8.09
2022-11-27T18:10:55.872Z,8.00
2022-11-27T18:13:22.629Z,8.20
2022-11-27T18:15:49.267Z,7.97
2022-11-27T18:18:15.901Z,7.85
2022-11-27T18:20:42.596Z,7.93
2022-11-27T18:23:09.242Z,7.82
2022-11-27T18:25:35.884Z,7.63
2022-11-27T18:28:02.460Z,7.27
2022-11-27T18:30:29.139Z,7.31
2022-11-27T18:32:55.809Z,7.34
2022-11-27T18:35:22.484Z,7.47
2022-11-27T18:37:49.178Z,7.62
2022-11-27T18:40:15.803Z,7.64
2022-11-27T18:42:42.446Z,7.44
2022-11-27T18:45:25.313Z,6.97
2022-11-27T18:47:55.710Z,6.94
2022-11-27T18:50:25.562Z,7.09
2022-11-27T18:52:56.052Z,7.16
2022-11-27T18:55:22.686Z,7.28
2022-11-27T18:57:49.328Z,7.08
2022-11-27T19:00:15.945Z,6.76
2022-11-27T19:02:42.657Z,6.95
2022-11-27T19:05:09.313Z,7.07
2022-11-27T19:07:36.042Z,6.85
2022-11-27T19:10:02.789Z,6.62
2022-11-27T19:12:29.433Z,6.71
2022-11-27T19:14:56.064Z,6.82
2022-11-27T19:17:24.727Z,6.94
2022-11-27T19:19:55.094Z,7.07
2022-11-27T19:22:21.933Z,7.12
2022-11-27T19:24:48.574Z,7.09
2022-11-27T19:27:15.241Z,7.14
2022-11-27T19:29:41.992Z,7.16
2022-11-27T19:32:08.876Z,7.13
2022-11-27T19:34:35.634Z,6.99
2022-11-27T19:37:02.310Z,6.71
2022-11-27T19:39:29.161Z,6.75
2022-11-27T19:41:55.774Z,6.90
2022-11-27T19:44:22.588Z,6.99
2022-11-27T19:46:49.405Z,7.10
2022-11-27T19:49:16.036Z,7.15
2022-11-27T19:51:42.781Z,7.15
2022-11-27T19:54:10.569Z,7.21
2022-11-27T19:56:37.432Z,7.18
2022-11-27T19:59:04.080Z,7.15
2022-11-27T20:01:30.836Z,7.16
2022-11-27T20:03:57.506Z,7.34
2022-11-27T20:06:24.204Z,7.42
2022-11-27T20:08:50.862Z,7.57
2022-11-27T20:11:17.468Z,7.30
2022-11-27T20:13:44.147Z,7.29
2022-11-27T20:16:10.815Z,7.36
2022-11-27T20:18:37.494Z,7.47
2022-11-27T20:21:04.099Z,7.57
2022-11-27T20:23:30.841Z,7.67
2022-11-27T20:25:57.490Z,7.65
2022-11-27T20:28:24.146Z,7.67
2022-11-27T20:30:50.882Z,7.76
2022-11-27T20:33:17.578Z,7.83
2022-11-27T20:35:44.186Z,7.80
2022-11-27T20:38:10.862Z,7.66
2022-11-27T20:40:37.509Z,7.49
2022-11-27T20:43:04.128Z,7.63
2022-11-27T20:45:30.834Z,7.70
2022-11-27T20:47:57.591Z,7.70
2022-11-27T20:50:24.466Z,7.86
2022-11-27T20:52:51.045Z,7.90
2022-11-27T20:55:17.715Z,7.97
2022-11-27T20:57:44.430Z,8.05
2022-11-27T21:00:11.040Z,8.05
2022-11-27T21:02:37.766Z,8.08
2022-11-27T21:05:04.445Z,8.16
2022-11-27T21:07:31.134Z,8.16
2022-11-27T21:09:57.842Z,8.14
2022-11-27T21:12:24.521Z,8.08
2022-11-27T21:14:51.191Z,8.14
2022-11-27T21:17:17.786Z,8.27
2022-11-27T21:19:44.600Z,8.30
2022-11-27T21:22:11.185Z,8.34
2022-11-27T21:24:37.794Z,8.37
2022-11-27T21:27:04.493Z,8.40
2022-11-27T21:29:31.159Z,8.42
2022-11-27T21:31:57.895Z,8.47
2022-11-27T21:34:24.555Z,8.41
2022-11-27T21:36:51.221Z,8.34
2022-11-27T21:39:17.859Z,8.36
2022-11-27T21:41:44.495Z,8.37
2022-11-27T21:44:11.110Z,8.39
2022-11-27T21:46:37.803Z,8.26
2022-11-27T21:49:04.425Z,8.30
2022-11-27T21:51:31.084Z,8.35
2022-11-27T21:53:57.766Z,8.37
2022-11-27T21:56:24.368Z,8.44
2022-11-27T21:58:51.037Z,8.24
2022-11-27T22:01:17.762Z,8.38
2022-11-27T22:03:44.472Z,8.44
2022-11-27T22:06:11.105Z,8.47
2022-11-27T22:08:37.806Z,8.50
2022-11-27T22:11:04.441Z,8.39
2022-11-27T22:13:31.081Z,8.43
2022-11-27T22:15:57.694Z,8.51
2022-11-27T22:18:24.309Z,8.61
2022-11-27T22:20:50.990Z,8.60
2022-11-27T22:23:17.657Z,8.64
2022-11-27T22:25:44.343Z,8.72
2022-11-27T22:28:10.954Z,8.67
2022-11-27T22:30:37.642Z,8.71
2022-11-27T22:33:04.361Z,8.71
2022-11-27T22:35:30.974Z,8.62
2022-11-27T22:37:57.582Z,8.67
2022-11-27T22:40:24.224Z,8.78
2022-11-27T22:42:50.868Z,8.72
2022-11-27T22:45:17.555Z,8.79
2022-11-27T22:47:44.171Z,8.65
2022-11-27T22:50:10.780Z,8.56
2022-11-27T22:52:37.421Z,8.67
2022-11-27T22:55:04.052Z,8.78
2022-11-27T22:57:30.699Z,8.66
2022-11-27T22:59:57.312Z,8.75
2022-11-27T23:02:23.965Z,8.77
2022-11-27T23:04:50.668Z,8.80
2022-11-27T23:07:22.317Z,8.51
2022-11-27T23:09:51.534Z,8.65
2022-11-27T23:12:18.218Z,8.81
2022-11-27T23:14:44.966Z,8.72
2022-11-27T23:17:11.745Z,8.72
2022-11-27T23:19:38.458Z,8.78
2022-11-27T23:22:05.191Z,8.87
2022-11-27T23:24:31.850Z,8.93
2022-11-27T23:26:58.532Z,8.98
2022-11-27T23:29:25.180Z,8.97
2022-11-27T23:31:51.823Z,8.93
2022-11-27T23:34:18.495Z,8.99
2022-11-27T23:36:45.075Z,8.79
2022-11-27T23:39:11.738Z,8.91
2022-11-27T23:41:38.427Z,8.91
2022-11-27T23:44:05.053Z,8.93
2022-11-27T23:46:31.704Z,8.91
2022-11-27T23:48:58.330Z,8.58
2022-11-27T23:51:24.973Z,8.68
2022-11-27T23:53:51.696Z,8.78
2022-11-27T23:56:18.325Z,8.49
2022-11-27T23:58:47.320Z,8.47
